Time;durP1;ratioP1;P1;durP2;ratioP2;P2;SDS_P1;SDS_P2;PMS_P1;PMS_P2;Temp;Humidity;BMP_temperature;BMP_pressure;BME280_temperature;BME280_humidity;BME280_pressure;Samples;Min_cycle;Max_cycle;Signal;HPM_P1;HPM_P2
2022/04/09 00:00:51;;;;;;;11.13;5.10;;;;;;;11.82;nan;-24147.09;4949821;28;20178;-70
2022/04/09 00:03:17;;;;;;;9.93;5.50;;;;;;;11.52;nan;-24138.78;4951632;29;20282;-70
2022/04/09 00:05:43;;;;;;;12.82;5.70;;;;;;;11.68;nan;-24143.28;4951166;29;20310;-71
2022/04/09 00:08:09;;;;;;;9.52;5.75;;;;;;;11.67;nan;-24143.00;4951814;28;20216;-71
2022/04/09 00:10:35;;;;;;;8.90;6.03;;;;;;;11.79;nan;-24146.25;4950969;29;20174;-70
2022/04/09 00:13:00;;;;;;;7.78;5.70;;;;;;;11.30;nan;-24132.56;4950434;29;20252;-70
2022/04/09 00:18:50;;;;;;;11.77;5.20;;;;;;;10.78;nan;-24118.19;4951335;29;20193;-70
2022/04/09 00:21:15;;;;;;;10.60;6.33;;;;;;;11.25;nan;-24131.16;4953245;29;20616;-71
2022/04/09 00:23:41;;;;;;;15.10;5.53;;;;;;;10.82;nan;-24119.31;4953831;28;20237;-70
2022/04/09 00:26:07;;;;;;;9.48;5.57;;;;;;;10.96;nan;-24123.13;4954857;29;20565;-71
2022/04/09 00:28:32;;;;;;;10.43;5.70;;;;;;;11.11;nan;-24127.22;4954273;29;20654;-70
2022/04/09 00:30:58;;;;;;;11.83;6.47;;;;;;;11.04;nan;-24125.38;4954728;29;20209;-70
2022/04/09 00:33:23;;;;;;;12.13;7.27;;;;;;;10.68;nan;-24115.38;4950923;29;20193;-70
2022/04/09 00:35:50;;;;;;;11.13;6.87;;;;;;;10.92;nan;-24122.13;4954429;29;20658;-71
2022/04/09 00:38:19;;;;;;;11.77;6.77;;;;;;;10.73;nan;-24116.63;4939589;29;20254;-70
2022/04/09 00:40:44;;;;;;;13.07;7.07;;;;;;;10.63;nan;-24114.09;4955665;29;20177;-70
2022/04/09 00:43:10;;;;;;;11.27;7.43;;;;;;;10.62;nan;-24113.81;4956149;29;20182;-71
2022/04/09 00:45:39;;;;;;;12.90;8.00;;;;;;;10.51;nan;-24110.72;4954262;28;20182;-70
2022/04/09 00:48:08;;;;;;;16.03;7.30;;;;;;;10.34;nan;-24105.91;4956488;29;20189;-70
2022/04/09 00:50:33;;;;;;;11.70;7.50;;;;;;;10.06;nan;-24098.16;4975316;28;20274;-70
2022/04/09 00:53:02;;;;;;;12.47;7.20;;;;;;;10.40;nan;-24107.63;4967041;28;20193;-70
2022/04/09 00:58:15;;;;;;;15.67;7.97;;;;;;;9.91;nan;-24093.91;4955284;29;20252;-70
2022/04/09 01:00:42;;;;;;;13.80;7.00;;;;;;;10.01;nan;-24096.72;4953837;28;20198;-70
2022/04/09 01:03:29;;;;;;;14.27;7.43;;;;;;;9.76;nan;-24089.81;4953394;28;20192;-70
2022/04/09 01:06:19;;;;;;;20.33;7.50;;;;;;;9.95;nan;-24094.91;4953114;28;20646;-70
2022/04/09 01:09:06;;;;;;;12.73;7.80;;;;;;;9.63;nan;-24086.00;4953340;29;20209;-70
2022/04/09 01:11:33;;;;;;;16.17;6.80;;;;;;;9.96;nan;-24095.19;4953430;28;20202;-70
2022/04/09 01:13:58;;;;;;;12.50;7.30;;;;;;;9.59;nan;-24085.00;4952907;28;20857;-71
2022/04/09 01:16:28;;;;;;;13.40;7.60;;;;;;;9.90;nan;-24093.63;4953213;28;20198;-70
2022/04/09 01:18:58;;;;;;;12.73;7.10;;;;;;;9.89;nan;-24093.22;4952924;29;20190;-70
2022/04/09 01:21:25;;;;;;;14.70;6.97;;;;;;;9.95;nan;-24094.91;4951850;29;20219;-70
2022/04/09 01:23:51;;;;;;;12.37;7.23;;;;;;;10.11;nan;-24099.41;4942484;29;20627;-71
2022/04/09 01:26:16;;;;;;;12.10;6.90;;;;;;;9.90;nan;-24093.63;4952100;29;20201;-70
2022/04/09 01:28:43;;;;;;;13.47;7.40;;;;;;;9.70;nan;-24087.97;4951260;29;20629;-71
2022/04/09 01:31:09;;;;;;;11.27;7.30;;;;;;;9.69;nan;-24087.69;4952855;28;20202;-70
2022/04/09 01:33:34;;;;;;;11.17;6.13;;;;;;;9.90;nan;-24093.63;4952797;29;20244;-70
2022/04/09 01:36:00;;;;;;;10.07;6.50;;;;;;;9.85;nan;-24092.06;4952456;29;20326;-70
2022/04/09 01:38:25;;;;;;;10.50;6.83;;;;;;;9.63;nan;-24086.13;4952308;29;20229;-70
2022/04/09 01:40:51;;;;;;;12.10;6.73;;;;;;;9.93;nan;-24094.47;4951223;28;20186;-70
2022/04/09 01:43:17;;;;;;;10.67;6.37;;;;;;;9.65;nan;-24086.56;4949844;29;20193;-70
2022/04/09 01:45:43;;;;;;;10.37;6.50;;;;;;;9.96;nan;-24095.19;4949984;29;20193;-70
2022/04/09 01:48:10;;;;;;;9.90;6.27;;;;;;;9.58;nan;-24084.72;4952197;29;20189;-70
2022/04/09 01:50:36;;;;;;;13.93;6.70;;;;;;;9.97;nan;-24095.59;4948631;29;20296;-71
2022/04/09 01:53:02;;;;;;;11.47;6.30;;;;;;;10.05;nan;-24097.72;4951293;29;20292;-70
2022/04/09 01:55:28;;;;;;;15.60;6.20;;;;;;;9.52;nan;-24082.91;4951678;29;20697;-70
2022/04/09 01:57:53;;;;;;;10.43;6.13;;;;;;;9.12;nan;-24071.72;4952107;29;20205;-70
2022/04/09 02:00:19;;;;;;;8.93;5.73;;;;;;;9.95;nan;-24095.03;4952369;29;20201;-70
2022/04/09 02:02:45;;;;;;;10.17;6.20;;;;;;;9.99;nan;-24096.16;4951388;29;20219;-70
2022/04/09 02:05:12;;;;;;;13.13;6.30;;;;;;;10.10;nan;-24099.28;4951604;28;20277;-70
2022/04/09 02:07:42;;;;;;;10.07;6.07;;;;;;;10.21;nan;-24102.09;4951605;29;20186;-71
2022/04/09 02:10:08;;;;;;;10.77;6.53;;;;;;;9.76;nan;-24089.81;4953006;28;20672;-70
2022/04/09 02:12:35;;;;;;;8.67;6.13;;;;;;;10.19;nan;-24101.69;4951026;29;20273;-70
2022/04/09 02:15:02;;;;;;;11.50;6.27;;;;;;;10.29;nan;-24104.50;4952302;29;20716;-70
2022/04/09 02:17:27;;;;;;;14.77;6.97;;;;;;;9.83;nan;-24091.66;4952476;29;20181;-70
2022/04/09 02:19:53;;;;;;;9.17;6.60;;;;;;;9.66;nan;-24086.84;4951817;29;20190;-70
2022/04/09 02:22:18;;;;;;;11.10;6.83;;;;;;;9.72;nan;-24088.53;4952441;28;20182;-70
2022/04/09 02:24:44;;;;;;;18.60;7.03;;;;;;;10.16;nan;-24100.84;4951526;28;20185;-71
2022/04/09 02:27:10;;;;;;;12.23;6.67;;;;;;;9.92;nan;-24094.06;4951690;29;20194;-70
2022/04/09 02:29:36;;;;;;;17.10;6.73;;;;;;;10.15;nan;-24100.53;4951475;29;20181;-70
2022/04/09 02:32:02;;;;;;;13.17;7.43;;;;;;;10.06;nan;-24098.00;4957435;28;20205;-70
2022/04/09 02:34:28;;;;;;;10.87;7.17;;;;;;;10.09;nan;-24098.84;4956441;28;20189;-71
2022/04/09 02:36:54;;;;;;;16.83;8.20;;;;;;;9.92;nan;-24094.19;4952709;28;20185;-70
2022/04/09 02:39:21;;;;;;;15.50;7.67;;;;;;;10.14;nan;-24100.41;4948806;29;20623;-70
2022/04/09 02:41:52;;;;;;;14.93;8.00;;;;;;;10.08;nan;-24098.56;4951352;29;20182;-71
2022/04/09 02:44:18;;;;;;;16.97;10.07;;;;;;;10.09;nan;-24098.84;4952144;29;20269;-70
2022/04/09 02:46:45;;;;;;;18.73;9.80;;;;;;;9.94;nan;-24094.63;4951974;28;20733;-71
2022/04/09 02:49:11;;;;;;;18.83;9.33;;;;;;;9.52;nan;-24083.03;4952452;28;20213;-70
2022/04/09 02:51:36;;;;;;;17.93;9.43;;;;;;;9.55;nan;-24083.75;4950869;29;20697;-70
2022/04/09 02:54:02;;;;;;;19.50;10.00;;;;;;;9.58;nan;-24084.72;4952305;29;20186;-70
2022/04/09 02:56:27;;;;;;;23.70;11.83;;;;;;;9.65;nan;-24086.72;4949456;29;20189;-70
2022/04/09 02:58:53;;;;;;;26.17;12.67;;;;;;;9.58;nan;-24084.59;4946994;29;21571;-70
2022/04/09 03:01:18;;;;;;;25.37;12.23;;;;;;;9.84;nan;-24091.78;4949522;28;20272;-70
2022/04/09 03:03:44;;;;;;;27.97;12.97;;;;;;;9.82;nan;-24091.22;4951670;29;20276;-70
2022/04/09 03:06:13;;;;;;;27.13;12.80;;;;;;;9.81;nan;-24091.09;4952218;29;20281;-70
2022/04/09 03:08:38;;;;;;;19.07;11.30;;;;;;;9.44;nan;-24080.78;4948117;29;20312;-70
2022/04/09 03:11:04;;;;;;;22.17;12.00;;;;;;;9.82;nan;-24091.38;4951186;29;20685;-71
2022/04/09 03:13:29;;;;;;;19.97;11.80;;;;;;;9.82;nan;-24091.38;4951149;29;20268;-70
2022/04/09 03:15:55;;;;;;;19.63;11.60;;;;;;;9.49;nan;-24082.19;4951067;29;20269;-70
2022/04/09 03:18:20;;;;;;;25.40;12.53;;;;;;;9.62;nan;-24085.84;4957332;28;20189;-70
2022/04/09 03:20:45;;;;;;;25.23;14.00;;;;;;;9.19;nan;-24073.84;4950094;29;20196;-71
2022/04/09 03:23:11;;;;;;;21.77;11.67;;;;;;;9.36;nan;-24078.38;4950779;29;20555;-70
2022/04/09 03:25:37;;;;;;;25.63;12.13;;;;;;;9.52;nan;-24082.91;4951129;29;20229;-71
2022/04/09 03:28:02;;;;;;;26.23;12.57;;;;;;;9.44;nan;-24080.78;4951654;28;20170;-70
2022/04/09 03:30:28;;;;;;;28.03;13.20;;;;;;;9.57;nan;-24084.31;4951530;28;20178;-71
2022/04/09 03:32:54;;;;;;;20.43;11.33;;;;;;;9.43;nan;-24080.34;4951791;29;20324;-70
2022/04/09 03:35:19;;;;;;;25.37;11.20;;;;;;;9.63;nan;-24086.13;4952205;28;20604;-70
2022/04/09 03:37:45;;;;;;;20.67;11.50;;;;;;;9.53;nan;-24083.31;4955729;29;20221;-71
2022/04/09 03:40:12;;;;;;;19.33;11.27;;;;;;;9.46;nan;-24081.34;4954156;29;20238;-70
2022/04/09 03:42:38;;;;;;;19.27;10.67;;;;;;;9.23;nan;-24074.84;4958025;28;20190;-70
2022/04/09 03:45:04;;;;;;;18.10;10.53;;;;;;;9.27;nan;-24075.97;4955419;29;20539;-70
2022/04/09 03:47:33;;;;;;;20.97;11.07;;;;;;;9.17;nan;-24073.28;4954639;29;20178;-71
2022/04/09 03:50:00;;;;;;;21.83;11.03;;;;;;;9.39;nan;-24079.34;4955205;29;20234;-70
2022/04/09 03:52:26;;;;;;;19.50;10.67;;;;;;;9.41;nan;-24079.78;4955338;29;20712;-70
2022/04/09 03:54:55;;;;;;;22.23;10.67;;;;;;;9.31;nan;-24077.09;4954752;29;20214;-71
2022/04/09 03:57:23;;;;;;;20.00;10.80;;;;;;;8.91;nan;-24065.94;4955408;28;20202;-70
2022/04/09 03:59:54;;;;;;;25.30;10.03;;;;;;;9.25;nan;-24075.41;4955922;29;20194;-71
2022/04/09 04:02:19;;;;;;;27.43;10.10;;;;;;;9.33;nan;-24077.66;4955293;29;20645;-71
2022/04/09 04:04:44;;;;;;;24.40;10.20;;;;;;;9.69;nan;-24087.69;4955042;29;20189;-74
2022/04/09 04:07:10;;;;;;;26.70;10.77;;;;;;;9.73;nan;-24088.97;4970146;28;20248;-70
2022/04/09 04:09:36;;;;;;;30.40;11.23;;;;;;;9.66;nan;-24086.84;4954633;29;20649;-71
2022/04/09 04:12:02;;;;;;;18.97;10.13;;;;;;;9.64;nan;-24086.44;4956051;29;20652;-70
2022/04/09 04:14:28;;;;;;;20.13;9.73;;;;;;;10.37;nan;-24106.75;4955036;29;20229;-71
2022/04/09 04:16:54;;;;;;;25.27;10.50;;;;;;;10.26;nan;-24103.66;4954740;28;20273;-70
2022/04/09 04:19:19;;;;;;;19.67;10.23;;;;;;;10.78;nan;-24118.03;4954647;29;20289;-70
2022/04/09 04:21:44;;;;;;;23.23;9.93;;;;;;;11.17;nan;-24129.03;4954286;29;20204;-70
2022/04/09 04:24:10;;;;;;;26.00;9.60;;;;;;;11.19;nan;-24129.47;4955094;29;20178;-71
2022/04/09 04:26:36;;;;;;;22.40;11.18;;;;;;;11.09;nan;-24126.78;4955029;29;20174;-71
2022/04/09 04:29:01;;;;;;;23.58;10.60;;;;;;;11.13;nan;-24127.91;4955383;29;20186;-71
2022/04/09 04:31:27;;;;;;;22.58;9.85;;;;;;;10.55;nan;-24111.69;4954113;28;20327;-69
2022/04/09 04:33:52;;;;;;;20.93;9.77;;;;;;;10.02;nan;-24096.88;4953653;28;20178;-70
2022/04/09 04:36:18;;;;;;;20.60;10.20;;;;;;;10.15;nan;-24100.69;4954896;28;20650;-71
2022/04/09 04:38:44;;;;;;;17.33;8.50;;;;;;;10.52;nan;-24111.00;4954008;29;20587;-71
2022/04/09 04:41:09;;;;;;;15.83;9.00;;;;;;;10.26;nan;-24103.53;4952698;28;20567;-71
2022/04/09 04:43:35;;;;;;;24.37;11.33;;;;;;;9.94;nan;-24094.75;4977327;28;20186;-71
2022/04/09 04:46:00;;;;;;;26.67;10.53;;;;;;;10.45;nan;-24108.88;4954734;29;20194;-71
2022/04/09 04:48:26;;;;;;;17.17;9.63;;;;;;;10.50;nan;-24110.44;4953786;28;20626;-71
2022/04/09 04:50:52;;;;;;;24.83;10.70;;;;;;;10.61;nan;-24113.53;4953519;29;20232;-72
2022/04/09 04:53:17;;;;;;;25.87;9.90;;;;;;;10.99;nan;-24123.97;4955306;29;20654;-71
2022/04/09 04:55:43;;;;;;;21.75;9.25;;;;;;;11.26;nan;-24131.44;4954713;29;20200;-71
2022/04/09 04:58:08;;;;;;;19.95;10.40;;;;;;;11.14;nan;-24128.19;4955380;29;20584;-71
2022/04/09 05:00:33;;;;;;;29.80;10.55;;;;;;;11.30;nan;-24132.56;4953320;29;20281;-71
2022/04/09 05:02:59;;;;;;;18.13;8.80;;;;;;;11.62;nan;-24141.59;4954531;29;20185;-71
2022/04/09 05:05:25;;;;;;;21.35;9.60;;;;;;;11.81;nan;-24146.81;4955180;28;20193;-72
2022/04/09 05:07:52;;;;;;;17.05;9.13;;;;;;;11.63;nan;-24141.72;4953488;29;21990;-72
2022/04/09 05:10:23;;;;;;;27.90;9.45;;;;;;;11.51;nan;-24138.63;4953071;28;20571;-72
2022/04/09 05:12:50;;;;;;;18.20;9.83;;;;;;;11.28;nan;-24132.16;4953325;29;20677;-71
2022/04/09 05:15:17;;;;;;;26.90;9.88;;;;;;;11.66;nan;-24142.56;4954441;29;20190;-72
2022/04/09 05:17:43;;;;;;;21.77;11.57;;;;;;;11.61;nan;-24141.31;4952810;29;20245;-71
2022/04/09 05:20:12;;;;;;;22.77;9.82;;;;;;;11.80;nan;-24146.53;4952991;29;20207;-70
2022/04/09 05:22:41;;;;;;;18.95;9.15;;;;;;;11.55;nan;-24139.47;4953248;29;20185;-73
2022/04/09 05:25:07;;;;;;;21.35;9.90;;;;;;;11.92;nan;-24150.03;4952242;29;20177;-73
2022/04/09 05:27:32;;;;;;;19.67;10.10;;;;;;;11.65;nan;-24142.28;4953447;29;20181;-73
2022/04/09 05:29:58;;;;;;;19.73;10.00;;;;;;;11.93;nan;-24150.31;4953301;29;20672;-71
2022/04/09 05:32:23;;;;;;;23.80;10.10;;;;;;;11.74;nan;-24144.84;4953457;28;20194;-73
2022/04/09 05:34:49;;;;;;;16.98;8.95;;;;;;;11.97;nan;-24151.16;4952159;29;20183;-71
2022/04/09 05:37:15;;;;;;;16.83;9.70;;;;;;;11.99;nan;-24151.88;4957973;28;20570;-70
2022/04/09 05:39:42;;;;;;;16.83;9.20;;;;;;;12.25;nan;-24159.19;4953102;29;20198;-70
2022/04/09 05:42:09;;;;;;;16.40;8.80;;;;;;;12.16;nan;-24156.66;4956148;28;20190;-70
2022/04/09 05:44:34;;;;;;;16.10;9.35;;;;;;;12.32;nan;-24161.03;4966106;29;20213;-70
2022/04/09 05:47:00;;;;;;;14.95;9.13;;;;;;;11.94;nan;-24150.47;4973181;29;20190;-70
2022/04/09 05:49:26;;;;;;;14.80;9.50;;;;;;;12.18;nan;-24157.22;4964045;29;20189;-71
2022/04/09 05:51:52;;;;;;;13.77;9.02;;;;;;;12.46;nan;-24164.81;4954262;29;20245;-71
2022/04/09 05:54:17;;;;;;;20.02;9.48;;;;;;;12.78;nan;-24173.97;4954652;29;20592;-70
2022/04/09 05:56:42;;;;;;;15.25;10.18;;;;;;;12.58;nan;-24168.19;4954491;28;20309;-70
2022/04/09 05:59:08;;;;;;;14.95;9.80;;;;;;;13.03;nan;-24180.72;4958394;28;20178;-71
2022/04/09 06:01:34;;;;;;;27.35;9.60;;;;;;;12.97;nan;-24179.03;4961118;28;20688;-70
2022/04/09 06:04:01;;;;;;;16.55;9.00;;;;;;;13.61;nan;-24197.00;4956042;28;20269;-71
2022/04/09 06:06:26;;;;;;;17.45;9.23;;;;;;;13.70;nan;-24199.41;4947551;29;20190;-71
2022/04/09 06:08:53;;;;;;;18.60;9.07;;;;;;;14.24;nan;-24214.41;4959297;28;20200;-71
2022/04/09 06:11:18;;;;;;;20.05;10.00;;;;;;;13.70;nan;-24199.41;4955563;28;20384;-71
2022/04/09 06:13:44;;;;;;;19.75;9.55;;;;;;;14.27;nan;-24215.13;4953818;28;20273;-71
2022/04/09 06:16:10;;;;;;;17.02;10.10;;;;;;;14.28;nan;-24215.53;4955942;28;20233;-71
2022/04/09 06:18:38;;;;;;;18.17;10.30;;;;;;;14.09;nan;-24210.34;4952528;29;20190;-71
2022/04/09 06:21:04;;;;;;;15.85;9.55;;;;;;;14.29;nan;-24215.81;4953899;29;20268;-71
2022/04/09 06:23:29;;;;;;;13.98;9.40;;;;;;;14.15;nan;-24212.03;4953779;29;20190;-71
2022/04/09 06:25:55;;;;;;;20.15;9.07;;;;;;;14.77;nan;-24229.13;4954520;28;20638;-72
2022/04/09 06:28:20;;;;;;;18.55;9.65;;;;;;;14.93;nan;-24233.50;4968869;28;20241;-71
2022/04/09 06:30:45;;;;;;;23.17;9.57;;;;;;;14.56;nan;-24223.25;4953841;29;20178;-71
2022/04/09 06:33:11;;;;;;;19.30;9.48;;;;;;;14.67;nan;-24226.34;4953219;28;20177;-71
2022/04/09 06:35:36;;;;;;;14.43;8.75;;;;;;;14.73;nan;-24228.03;4953780;28;20177;-72
2022/04/09 06:38:02;;;;;;;15.13;7.95;;;;;;;14.62;nan;-24224.94;4953577;28;20162;-71
2022/04/09 06:40:28;;;;;;;14.77;8.80;;;;;;;14.52;nan;-24222.28;4953410;28;20171;-71
2022/04/09 06:42:54;;;;;;;22.48;9.07;;;;;;;14.61;nan;-24224.50;4953864;28;20201;-71
2022/04/09 06:45:19;;;;;;;17.67;8.93;;;;;;;14.28;nan;-24215.41;4958654;28;20638;-71
2022/04/09 06:47:47;;;;;;;15.18;9.45;;;;;;;14.64;nan;-24225.50;4953371;29;20576;-71
2022/04/09 06:50:13;;;;;;;18.08;8.80;;;;;;;14.75;nan;-24228.56;4954782;28;20234;-71
2022/04/09 06:52:40;;;;;;;16.65;8.95;;;;;;;14.85;nan;-24231.38;4953954;29;20548;-71
2022/04/09 06:55:09;;;;;;;19.05;8.57;;;;;;;14.58;nan;-24223.94;4953508;28;20537;-71
2022/04/09 06:57:38;;;;;;;15.05;7.65;;;;;;;14.96;nan;-24234.31;4953549;28;20261;-71
2022/04/09 07:00:07;;;;;;;18.17;6.90;;;;;;;15.14;nan;-24239.22;4953229;28;20182;-71
2022/04/09 07:02:33;;;;;;;13.80;6.82;;;;;;;15.09;nan;-24237.81;4952877;28;20180;-71
2022/04/09 07:04:59;;;;;;;17.17;6.00;;;;;;;15.35;nan;-24245.25;4953247;28;20545;-71
2022/04/09 07:07:25;;;;;;;14.43;6.57;;;;;;;15.76;nan;-24256.59;4953402;28;20180;-71
2022/04/09 07:09:55;;;;;;;15.45;7.55;;;;;;;15.73;nan;-24255.75;4954430;28;20205;-71
2022/04/09 07:12:22;;;;;;;10.95;6.60;;;;;;;16.12;nan;-24266.38;4957185;28;20300;-71
2022/04/09 07:14:48;;;;;;;14.90;6.72;;;;;;;16.32;nan;-24271.97;4957028;28;20177;-71
2022/04/09 07:17:22;;;;;;;11.82;5.70;;;;;;;16.86;nan;-24286.78;4957133;28;20173;-71
2022/04/09 07:19:47;;;;;;;9.35;6.05;;;;;;;16.77;nan;-24284.41;4957254;28;20175;-71
2022/04/09 07:22:13;;;;;;;13.23;6.18;;;;;;;16.82;nan;-24285.69;4957342;28;20170;-71
2022/04/09 07:24:40;;;;;;;11.27;5.32;;;;;;;17.03;nan;-24291.69;4956792;28;20630;-72
2022/04/09 07:27:06;;;;;;;8.38;5.57;;;;;;;17.12;nan;-24294.06;4957214;28;20181;-71
2022/04/09 07:29:31;;;;;;;8.48;5.45;;;;;;;17.54;nan;-24305.63;4956877;29;20178;-71
2022/04/09 07:31:56;;;;;;;11.52;7.00;;;;;;;17.27;nan;-24298.09;4957006;28;20261;-71
2022/04/09 07:34:22;;;;;;;9.55;5.78;;;;;;;17.48;nan;-24303.97;4955493;29;20191;-71
2022/04/09 07:36:49;;;;;;;10.60;6.10;;;;;;;17.43;nan;-24302.72;4956849;28;20178;-71
2022/04/09 07:39:14;;;;;;;11.40;5.55;;;;;;;17.94;nan;-24316.81;4956725;28;20193;-71
2022/04/09 07:41:40;;;;;;;9.68;5.00;;;;;;;17.65;nan;-24308.84;4956851;28;20282;-71
2022/04/09 07:44:06;;;;;;;11.95;5.65;;;;;;;18.12;nan;-24321.69;4956366;28;20166;-71
2022/04/09 07:46:31;;;;;;;9.55;5.25;;;;;;;18.56;nan;-24333.66;4956591;28;20181;-72
2022/04/09 07:48:57;;;;;;;12.07;5.50;;;;;;;18.35;nan;-24327.94;4956782;28;20237;-71
2022/04/09 07:51:22;;;;;;;12.35;5.60;;;;;;;18.80;nan;-24340.34;4969838;28;20232;-71
2022/04/09 07:53:48;;;;;;;11.15;5.47;;;;;;;18.71;nan;-24337.84;4959959;28;20204;-73
2022/04/09 07:56:13;;;;;;;10.10;5.85;;;;;;;19.25;nan;-24352.88;4973704;28;20205;-71
2022/04/09 07:58:39;;;;;;;6.40;4.82;;;;;;;19.26;nan;-24353.16;4956174;29;20638;-72
2022/04/09 08:01:04;;;;;;;9.20;5.70;;;;;;;19.32;nan;-24354.81;4960904;28;20267;-72
2022/04/09 08:03:31;;;;;;;11.02;5.70;;;;;;;19.07;nan;-24347.88;4958229;28;20232;-72
2022/04/09 08:05:57;;;;;;;10.70;5.65;;;;;;;19.40;nan;-24356.91;4975840;28;20177;-72
2022/04/09 08:08:22;;;;;;;9.70;6.10;;;;;;;19.20;nan;-24351.34;4975758;28;20715;-72
2022/04/09 08:10:47;;;;;;;10.30;5.38;;;;;;;19.46;nan;-24358.44;4975580;28;20181;-72
2022/04/09 08:13:13;;;;;;;11.80;4.70;;;;;;;19.71;nan;-24365.41;4975076;28;20224;-72
2022/04/09 08:15:39;;;;;;;11.25;4.75;;;;;;;19.99;nan;-24373.19;4975495;28;20264;-72
2022/04/09 08:18:05;;;;;;;10.85;4.75;;;;;;;19.53;nan;-24360.38;4975441;28;20668;-72
2022/04/09 08:20:32;;;;;;;9.23;4.93;;;;;;;19.49;nan;-24359.28;4975287;28;20548;-72
2022/04/09 08:22:57;;;;;;;7.85;4.47;;;;;;;19.61;nan;-24362.63;4974795;28;20169;-72
2022/04/09 08:25:22;;;;;;;9.02;4.60;;;;;;;19.64;nan;-24363.44;4975196;28;20637;-72
2022/04/09 08:27:52;;;;;;;8.77;4.60;;;;;;;20.21;nan;-24379.16;4975091;28;20590;-76
2022/04/09 08:30:17;;;;;;;10.05;4.60;;;;;;;19.97;nan;-24372.50;4975504;28;20267;-76
2022/04/09 08:32:43;;;;;;;7.05;4.82;;;;;;;20.48;nan;-24386.53;4975292;28;20677;-78
2022/04/09 08:35:09;;;;;;;10.23;4.50;;;;;;;20.47;nan;-24386.25;4975385;28;20185;-76
2022/04/09 08:37:35;;;;;;;9.15;4.57;;;;;;;20.60;nan;-24389.97;4974745;28;20212;-78
2022/04/09 08:40:02;;;;;;;9.43;4.40;;;;;;;20.66;nan;-24391.50;4957364;28;20185;-74
2022/04/09 08:42:28;;;;;;;7.38;4.47;;;;;;;20.45;nan;-24385.81;4974774;28;20182;-74
2022/04/09 08:44:54;;;;;;;10.65;4.70;;;;;;;20.75;nan;-24394.00;4978468;28;20181;-73
2022/04/09 08:47:20;;;;;;;9.38;4.70;;;;;;;20.80;nan;-24395.41;4976020;28;20645;-75
2022/04/09 08:49:47;;;;;;;10.50;5.15;;;;;;;21.13;nan;-24404.56;4957566;28;20630;-79
2022/04/09 08:52:14;;;;;;;11.45;5.00;;;;;;;21.48;nan;-24413.97;4957600;28;20201;-73
2022/04/09 08:54:41;;;;;;;9.48;4.38;;;;;;;21.50;nan;-24414.53;4974598;28;20240;-75
2022/04/09 08:57:06;;;;;;;12.43;5.15;;;;;;;21.54;nan;-24415.78;4974901;28;20204;-74
2022/04/09 08:59:32;;;;;;;20.95;5.00;;;;;;;21.27;nan;-24408.16;4974762;28;20199;-73
2022/04/09 09:01:58;;;;;;;5.65;3.95;;;;;;;21.29;nan;-24408.72;4957298;28;20200;-72
2022/04/09 09:04:24;;;;;;;8.10;4.78;;;;;;;21.34;nan;-24410.09;4974800;28;20165;-74
2022/04/09 09:06:49;;;;;;;5.10;3.90;;;;;;;21.36;nan;-24410.66;4974414;28;20564;-72
2022/04/09 09:09:30;;;;;;;7.32;4.15;;;;;;;21.58;nan;-24416.75;4974483;28;20644;-79
2022/04/09 09:11:57;;;;;;;10.10;4.60;;;;;;;21.52;nan;-24415.22;4974624;28;20195;-77
2022/04/09 09:14:30;;;;;;;7.05;4.63;;;;;;;21.91;nan;-24425.91;4957349;28;20178;-77
2022/04/09 09:17:00;;;;;;;8.55;3.60;;;;;;;22.02;nan;-24428.94;4974518;28;20174;-78
2022/04/09 09:19:52;;;;;;;11.35;4.00;;;;;;;22.27;nan;-24435.59;4973873;28;20166;-73
2022/04/09 09:22:19;;;;;;;9.85;4.28;;;;;;;22.01;nan;-24428.66;4973984;28;20174;-77
2022/04/09 09:25:02;;;;;;;6.85;3.97;;;;;;;22.08;nan;-24430.31;4974081;28;20173;-79
2022/04/09 09:27:28;;;;;;;7.97;4.00;;;;;;;22.17;nan;-24432.81;4974130;28;20574;-75
2022/04/09 09:29:55;;;;;;;9.88;3.92;;;;;;;21.43;nan;-24412.72;4971222;28;20176;-75
2022/04/09 09:32:25;;;;;;;7.15;4.40;;;;;;;21.67;nan;-24419.25;4936719;29;20595;-76
2022/04/09 09:34:55;;;;;;;6.70;4.28;;;;;;;22.07;nan;-24430.19;4953214;29;20166;-74
2022/04/09 09:37:23;;;;;;;8.13;3.92;;;;;;;22.16;nan;-24432.53;4936924;29;20197;-76
2022/04/09 09:39:49;;;;;;;9.25;4.05;;;;;;;21.66;nan;-24418.97;4936300;29;20601;-78
2022/04/09 09:42:19;;;;;;;5.75;4.32;;;;;;;22.08;nan;-24430.31;4955405;29;20189;-75
2022/04/09 09:44:45;;;;;;;9.38;4.40;;;;;;;21.66;nan;-24418.97;4957786;29;20539;-73
2022/04/09 09:47:17;;;;;;;8.10;4.30;;;;;;;21.69;nan;-24419.66;4953902;28;20193;-76
2022/04/09 09:49:55;;;;;;;10.88;4.13;;;;;;;22.62;nan;-24445.25;4959904;28;20563;-74
2022/04/09 09:52:32;;;;;;;7.63;4.10;;;;;;;22.78;nan;-24449.69;4961966;28;20206;-74
2022/04/09 09:54:57;;;;;;;6.22;4.20;;;;;;;22.58;nan;-24444.16;4969809;28;20184;-75
2022/04/09 09:57:26;;;;;;;9.60;4.70;;;;;;;22.57;nan;-24443.88;4955230;28;20189;-76
2022/04/09 09:59:53;;;;;;;9.82;4.50;;;;;;;22.42;nan;-24439.75;4969207;28;20185;-75
2022/04/09 10:02:23;;;;;;;5.82;3.92;;;;;;;22.83;nan;-24451.09;4955700;28;20182;-73
2022/04/09 10:04:50;;;;;;;5.35;3.78;;;;;;;22.99;nan;-24455.22;4968943;28;20355;-78
2022/04/09 10:07:17;;;;;;;8.90;3.80;;;;;;;23.54;nan;-24470.41;4956243;28;20190;-74
2022/04/09 10:09:44;;;;;;;6.82;4.13;;;;;;;23.49;nan;-24468.91;4966838;28;20224;-74
2022/04/09 10:12:14;;;;;;;6.05;3.78;;;;;;;23.71;nan;-24475.13;4956423;28;20705;-75
2022/04/09 10:14:41;;;;;;;6.82;3.88;;;;;;;23.57;nan;-24471.25;4967368;28;20645;-75
2022/04/09 10:17:09;;;;;;;7.00;4.10;;;;;;;23.63;nan;-24472.78;4957661;28;20189;-75
2022/04/09 10:19:40;;;;;;;8.15;4.35;;;;;;;23.32;nan;-24464.47;4955930;28;20264;-73
2022/04/09 10:22:09;;;;;;;7.57;3.97;;;;;;;23.17;nan;-24460.34;4949381;29;20284;-73
2022/04/09 10:24:35;;;;;;;6.22;3.78;;;;;;;23.29;nan;-24463.66;4972278;28;20728;-71
2022/04/09 10:27:04;;;;;;;9.38;4.32;;;;;;;23.40;nan;-24466.41;4978586;28;20209;-71
2022/04/09 10:29:47;;;;;;;9.27;4.20;;;;;;;23.56;nan;-24470.97;4985978;28;20209;-76
2022/04/09 10:32:59;;;;;;;6.75;4.20;;;;;;;23.35;nan;-24465.31;4957224;28;20212;-72
2022/04/09 10:35:39;;;;;;;9.70;4.40;;;;;;;23.46;nan;-24468.22;4952500;28;20649;-76
2022/04/09 10:38:08;;;;;;;7.72;4.38;;;;;;;22.82;nan;-24450.81;4955849;28;20185;-78
2022/04/09 10:40:34;;;;;;;10.20;4.47;;;;;;;22.41;nan;-24439.59;4957740;28;20727;-74
2022/04/09 10:43:01;;;;;;;9.30;4.50;;;;;;;22.54;nan;-24443.06;4962015;28;20685;-74
2022/04/09 10:45:30;;;;;;;8.32;4.35;;;;;;;22.69;nan;-24447.06;4953835;29;20552;-76
2022/04/09 10:48:11;;;;;;;8.00;4.28;;;;;;;22.64;nan;-24445.69;4973537;28;20209;-76
2022/04/09 10:50:55;;;;;;;10.52;4.32;;;;;;;22.57;nan;-24443.88;4972989;28;20295;-76
2022/04/09 10:53:22;;;;;;;7.50;3.75;;;;;;;22.55;nan;-24443.34;4958284;28;20197;-74
2022/04/09 10:56:10;;;;;;;7.65;3.72;;;;;;;22.86;nan;-24451.91;4970930;28;20562;-77
2022/04/09 10:59:17;;;;;;;8.07;3.70;;;;;;;23.14;nan;-24459.38;4935188;29;20182;-76
2022/04/09 11:01:49;;;;;;;7.13;3.50;;;;;;;23.41;nan;-24466.69;4945104;29;20193;-75
2022/04/09 11:04:30;;;;;;;6.50;3.55;;;;;;;24.07;nan;-24484.78;4953584;29;20178;-75
2022/04/09 11:07:17;;;;;;;9.65;3.45;;;;;;;24.05;nan;-24484.34;4954527;29;20170;-75
2022/04/09 11:09:56;;;;;;;8.40;3.80;;;;;;;23.90;nan;-24480.22;4953340;29;20608;-73
2022/04/09 11:12:29;;;;;;;6.78;3.42;;;;;;;23.95;nan;-24481.47;4953297;29;20268;-78
2022/04/09 11:15:02;;;;;;;9.05;3.35;;;;;;;24.12;nan;-24486.28;4936180;29;20272;-73
2022/04/09 11:17:32;;;;;;;7.03;3.20;;;;;;;24.39;nan;-24493.59;4954278;29;20237;-77
2022/04/09 11:20:03;;;;;;;6.20;3.35;;;;;;;24.29;nan;-24490.72;4954118;29;20249;-73
2022/04/09 11:22:39;;;;;;;5.88;4.00;;;;;;;24.95;nan;-24508.91;4954036;29;20261;-74
2022/04/09 11:25:07;;;;;;;5.93;3.22;;;;;;;25.20;nan;-24515.63;4953041;28;20192;-75
2022/04/09 11:27:33;;;;;;;5.07;3.30;;;;;;;25.55;nan;-24525.13;4969184;28;20193;-78
2022/04/09 11:29:59;;;;;;;5.28;3.40;;;;;;;25.95;nan;-24536.13;4954640;28;20188;-77
2022/04/09 11:32:26;;;;;;;5.30;3.55;;;;;;;25.92;nan;-24535.19;4956353;28;20201;-77
2022/04/09 11:34:54;;;;;;;10.07;3.40;;;;;;;26.19;nan;-24542.59;4972594;28;20205;-76
2022/04/09 11:37:20;;;;;;;8.73;3.67;;;;;;;26.34;nan;-24546.72;4971939;28;20567;-76
2022/04/09 11:39:47;;;;;;;7.22;3.53;;;;;;;26.59;nan;-24553.44;4972366;28;20660;-75
2022/04/09 11:42:13;;;;;;;6.25;3.33;;;;;;;26.70;nan;-24556.47;4973775;28;20188;-74
2022/04/09 11:44:39;;;;;;;8.02;3.83;;;;;;;26.67;nan;-24555.50;4972180;28;20182;-75